Time;durP1;ratioP1;P1;durP2;ratioP2;P2;SDS_P1;SDS_P2;PMS_P1;PMS_P2;Temp;Humidity;BMP_temperature;BMP_pressure;BME280_temperature;BME280_humidity;BME280_pressure;Samples;Min_cycle;Max_cycle;Signal;HPM_P1;HPM_P2
2022/09/04 00:02:51;;;;;;;3.55;2.70;;;15.80;99.90;;;;;;5044355;28;20394;-72
2022/09/04 00:05:34;;;;;;;3.07;2.10;;;15.80;99.90;;;;;;5022264;28;20408;-72
2022/09/04 00:08:26;;;;;;;3.40;3.10;;;15.70;99.90;;;;;;5041869;28;20458;-72
2022/09/04 00:11:13;;;;;;;5.00;2.97;;;15.60;99.90;;;;;;5042683;28;20412;-71
2022/09/04 00:13:52;;;;;;;5.20;2.72;;;15.70;99.90;;;;;;5041101;28;20815;-71
2022/09/04 00:16:22;;;;;;;4.10;2.75;;;15.60;99.90;;;;;;5039771;28;20406;-71
2022/09/04 00:18:56;;;;;;;2.90;2.60;;;15.70;99.90;;;;;;5036411;28;20415;-71
2022/09/04 00:21:31;;;;;;;4.60;2.50;;;15.70;99.90;;;;;;5042982;28;20444;-71
2022/09/04 00:24:14;;;;;;;7.32;2.60;;;15.70;99.90;;;;;;5037464;28;20895;-71
2022/09/04 00:26:58;;;;;;;2.53;2.20;;;15.60;99.90;;;;;;5024950;28;20467;-72
2022/09/04 00:29:40;;;;;;;5.00;2.40;;;15.60;99.90;;;;;;5038123;28;20397;-72
2022/09/04 00:32:33;;;;;;;3.70;2.90;;;15.50;99.90;;;;;;5038127;28;20755;-72
2022/09/04 00:35:25;;;;;;;2.70;2.50;;;15.50;99.90;;;;;;5040571;28;20393;-72
2022/09/04 00:38:01;;;;;;;3.10;2.60;;;15.40;99.90;;;;;;5035833;28;20409;-72
2022/09/04 00:40:51;;;;;;;3.10;2.58;;;15.50;99.90;;;;;;5040152;28;20728;-71
2022/09/04 00:43:54;;;;;;;2.70;2.50;;;15.40;99.90;;;;;;5039599;28;20409;-72
2022/09/04 00:47:02;;;;;;;3.00;2.72;;;15.40;99.90;;;;;;5039767;28;20408;-72
2022/09/04 00:49:57;;;;;;;3.40;2.30;;;15.40;99.90;;;;;;5038335;28;20476;-72
2022/09/04 00:52:55;;;;;;;4.00;2.60;;;15.50;99.90;;;;;;5039781;28;20924;-71
2022/09/04 00:55:43;;;;;;;3.50;2.55;;;15.40;99.90;;;;;;5041689;28;20869;-72
2022/09/04 00:58:17;;;;;;;2.63;2.42;;;15.40;99.90;;;;;;5029821;28;20378;-71
2022/09/04 01:00:46;;;;;;;2.70;2.50;;;15.50;99.90;;;;;;5012297;28;20754;-71
2022/09/04 01:03:11;;;;;;;3.13;2.75;;;15.40;99.90;;;;;;5036374;28;20413;-71
2022/09/04 01:06:01;;;;;;;2.73;2.50;;;15.40;99.90;;;;;;5039040;28;20402;-71
2022/09/04 01:08:49;;;;;;;2.50;2.30;;;15.40;99.90;;;;;;5044091;28;20394;-71
2022/09/04 01:11:43;;;;;;;7.10;2.63;;;15.40;99.90;;;;;;5042818;28;20389;-72
2022/09/04 01:14:33;;;;;;;2.70;2.50;;;15.30;99.90;;;;;;5031855;28;20450;-72
2022/09/04 01:17:36;;;;;;;3.17;2.30;;;15.40;99.90;;;;;;5035348;28;20890;-71
2022/09/04 01:20:38;;;;;;;2.90;2.70;;;15.30;99.90;;;;;;5038085;28;20399;-72
2022/09/04 01:23:11;;;;;;;3.92;2.33;;;15.30;99.90;;;;;;5038646;28;20397;-72
2022/09/04 01:25:54;;;;;;;3.70;2.30;;;15.30;99.90;;;;;;5047422;28;20956;-71
2022/09/04 01:28:28;;;;;;;6.38;3.00;;;15.30;99.90;;;;;;5042745;28;20392;-72
2022/09/04 01:31:31;;;;;;;2.70;2.50;;;15.30;99.90;;;;;;5044820;28;20399;-71
2022/09/04 01:34:23;;;;;;;3.43;2.40;;;15.20;99.90;;;;;;5050510;28;20530;-71
2022/09/04 01:36:59;;;;;;;4.50;2.70;;;15.30;99.90;;;;;;5047113;28;20408;-72
2022/09/04 01:39:30;;;;;;;3.70;3.00;;;15.30;99.90;;;;;;5042629;28;20442;-72
2022/09/04 01:42:04;;;;;;;5.40;2.65;;;15.50;99.90;;;;;;5023818;28;20409;-71
2022/09/04 01:44:29;;;;;;;3.20;2.47;;;15.50;99.90;;;;;;5042818;28;20421;-72
2022/09/04 01:47:15;;;;;;;3.30;2.60;;;15.50;99.90;;;;;;5043272;28;20431;-72
2022/09/04 01:49:51;;;;;;;2.72;2.50;;;15.50;99.90;;;;;;5043775;28;20418;-71
2022/09/04 01:52:47;;;;;;;2.72;2.33;;;15.50;99.90;;;;;;5044651;28;20451;-71
2022/09/04 01:55:25;;;;;;;2.90;2.47;;;15.50;99.90;;;;;;5045881;28;20402;-71
2022/09/04 01:58:06;;;;;;;2.85;2.22;;;15.60;99.90;;;;;;5034470;28;20387;-71
2022/09/04 02:00:56;;;;;;;2.50;2.30;;;15.50;99.90;;;;;;5033348;28;20460;-71
2022/09/04 02:03:32;;;;;;;3.05;2.50;;;15.50;99.90;;;;;;5022824;28;20401;-71
2022/09/04 02:06:14;;;;;;;2.63;2.42;;;15.50;99.90;;;;;;5053119;28;20432;-72
2022/09/04 02:08:55;;;;;;;4.60;2.70;;;15.60;99.90;;;;;;5052960;28;20377;-71
2022/09/04 02:11:25;;;;;;;2.55;2.35;;;15.60;99.90;;;;;;5034966;28;20394;-72
2022/09/04 02:13:55;;;;;;;3.63;2.55;;;15.60;99.90;;;;;;5028167;28;21022;-72
2022/09/04 02:16:59;;;;;;;3.33;2.33;;;15.50;99.90;;;;;;5049950;28;20416;-71
2022/09/04 02:19:45;;;;;;;3.00;2.30;;;15.40;99.90;;;;;;5011514;28;20897;-72
2022/09/04 02:22:43;;;;;;;4.18;2.40;;;15.40;99.90;;;;;;5041378;28;20399;-72
2022/09/04 02:25:09;;;;;;;3.00;2.30;;;15.50;99.90;;;;;;5046917;28;20413;-72
2022/09/04 02:27:46;;;;;;;4.28;2.50;;;15.40;99.90;;;;;;5041342;28;20402;-72
2022/09/04 02:30:16;;;;;;;2.73;2.50;;;15.40;99.90;;;;;;5042427;28;20401;-72
2022/09/04 02:33:05;;;;;;;4.05;2.60;;;15.30;99.90;;;;;;5040273;28;20411;-72
2022/09/04 02:35:41;;;;;;;2.67;2.30;;;15.30;99.90;;;;;;5040282;28;20417;-72
2022/09/04 02:38:24;;;;;;;2.40;2.20;;;15.30;99.90;;;;;;5040828;28;20540;-71
2022/09/04 02:40:52;;;;;;;3.15;2.85;;;15.30;99.90;;;;;;5044436;28;20409;-72
2022/09/04 02:43:48;;;;;;;2.50;2.30;;;15.30;99.90;;;;;;5043091;28;20420;-72
2022/09/04 02:46:49;;;;;;;2.83;2.50;;;15.30;99.90;;;;;;5027683;28;20878;-72
2022/09/04 02:49:47;;;;;;;2.90;2.30;;;15.30;99.90;;;;;;5047578;28;20409;-72
2022/09/04 02:52:12;;;;;;;3.30;2.40;;;15.30;99.90;;;;;;5039917;28;20463;-71
2022/09/04 02:55:17;;;;;;;3.40;2.65;;;15.10;99.90;;;;;;5036985;28;20402;-72
2022/09/04 02:58:04;;;;;;;2.80;2.47;;;15.10;99.90;;;;;;5024911;28;20459;-72
2022/09/04 03:00:53;;;;;;;3.00;2.58;;;15.10;99.90;;;;;;5043183;28;20421;-72
2022/09/04 03:03:34;;;;;;;3.10;2.67;;;15.00;99.90;;;;;;5037277;28;20411;-72
2022/09/04 03:06:12;;;;;;;2.50;2.30;;;15.00;99.90;;;;;;5042260;28;20418;-72
2022/09/04 03:08:43;;;;;;;2.58;2.20;;;14.90;99.90;;;;;;5041017;28;20409;-72
2022/09/04 03:11:21;;;;;;;3.65;2.65;;;15.00;99.90;;;;;;5036690;28;20407;-71
2022/09/04 03:13:50;;;;;;;3.17;2.55;;;15.10;99.90;;;;;;5042068;28;20397;-72
2022/09/04 03:16:25;;;;;;;3.58;2.40;;;15.00;99.90;;;;;;5041208;28;20398;-71
2022/09/04 03:19:00;;;;;;;3.42;2.03;;;15.00;99.90;;;;;;5025770;28;20409;-72
2022/09/04 03:21:37;;;;;;;2.60;2.10;;;15.00;99.90;;;;;;5040423;28;20480;-71
2022/09/04 03:24:30;;;;;;;3.05;2.65;;;15.10;99.90;;;;;;5038074;28;20449;-71
2022/09/04 03:27:06;;;;;;;3.72;2.55;;;15.00;99.90;;;;;;5042824;28;20494;-71
2022/09/04 03:29:54;;;;;;;2.90;2.70;;;15.00;99.90;;;;;;5040194;28;20411;-71
2022/09/04 03:32:35;;;;;;;2.60;2.40;;;15.00;99.90;;;;;;5039839;28;20480;-72
2022/09/04 03:35:14;;;;;;;3.20;2.90;;;15.00;99.90;;;;;;5019070;28;20399;-71
2022/09/04 03:37:55;;;;;;;3.40;2.80;;;15.00;99.90;;;;;;5037563;28;20481;-72
2022/09/04 03:40:32;;;;;;;2.60;2.40;;;15.10;99.90;;;;;;5021064;28;20991;-71
2022/09/04 03:43:03;;;;;;;3.00;2.40;;;15.10;99.90;;;;;;5042066;28;20406;-71
2022/09/04 03:45:43;;;;;;;4.07;2.55;;;15.00;99.90;;;;;;5042439;28;20384;-72
2022/09/04 03:48:22;;;;;;;2.90;2.60;;;15.00;99.90;;;;;;5051472;28;20409;-71
2022/09/04 03:51:23;;;;;;;2.60;2.40;;;15.00;99.90;;;;;;5033027;28;20397;-72
2022/09/04 03:54:01;;;;;;;3.00;2.80;;;15.10;99.90;;;;;;5051281;28;20435;-71
2022/09/04 03:57:08;;;;;;;2.88;2.67;;;15.10;99.90;;;;;;5051499;28;20438;-72
2022/09/04 03:59:58;;;;;;;3.22;2.40;;;15.00;99.90;;;;;;5051267;28;20377;-71
2022/09/04 04:02:51;;;;;;;3.60;2.60;;;15.00;99.90;;;;;;5042333;28;20835;-71
2022/09/04 04:05:23;;;;;;;3.60;2.70;;;15.10;99.90;;;;;;5051642;28;20887;-72
2022/09/04 04:08:18;;;;;;;2.67;2.47;;;15.10;99.90;;;;;;5050931;28;20386;-72
2022/09/04 04:11:02;;;;;;;4.00;2.60;;;14.90;99.90;;;;;;5049628;28;20405;-72
2022/09/04 04:14:17;;;;;;;2.70;2.50;;;15.00;99.90;;;;;;5038022;28;20460;-72
2022/09/04 04:16:58;;;;;;;2.70;2.50;;;14.80;99.90;;;;;;4996073;28;20484;-71
2022/09/04 04:20:04;;;;;;;2.67;2.47;;;14.80;99.90;;;;;;5046745;28;20500;-71
2022/09/04 04:23:09;;;;;;;2.50;2.30;;;14.80;99.90;;;;;;5048734;28;20398;-71
2022/09/04 04:26:03;;;;;;;3.33;2.60;;;14.70;99.90;;;;;;5042264;28;20424;-71
2022/09/04 04:28:58;;;;;;;4.97;2.53;;;14.70;99.90;;;;;;5044308;28;20429;-71
2022/09/04 04:32:03;;;;;;;4.47;2.78;;;14.80;99.90;;;;;;5040649;28;20526;-71
2022/09/04 04:34:52;;;;;;;2.70;2.50;;;14.70;99.90;;;;;;5036303;28;20831;-71
2022/09/04 04:37:49;;;;;;;3.85;2.33;;;14.80;99.90;;;;;;5040499;28;20766;-72
2022/09/04 04:40:46;;;;;;;2.80;2.60;;;14.80;99.90;;;;;;5022208;28;20915;-71
2022/09/04 04:43:30;;;;;;;2.95;2.65;;;14.80;99.90;;;;;;5040699;28;20416;-71
2022/09/04 04:46:06;;;;;;;3.88;2.50;;;15.00;99.90;;;;;;5038534;28;20405;-71
2022/09/04 04:48:40;;;;;;;3.00;2.70;;;15.00;99.90;;;;;;5039750;28;20513;-72
2022/09/04 04:51:39;;;;;;;3.03;2.25;;;15.00;99.90;;;;;;5039585;28;20476;-72
2022/09/04 04:54:16;;;;;;;4.30;2.90;;;15.00;99.90;;;;;;5031672;28;20398;-72
2022/09/04 04:56:56;;;;;;;3.70;2.53;;;15.00;99.90;;;;;;5038323;28;20405;-72
2022/09/04 04:59:24;;;;;;;4.05;2.47;;;15.00;99.90;;;;;;5037892;28;20403;-72
2022/09/04 05:02:29;;;;;;;2.80;2.50;;;15.10;99.90;;;;;;5036241;28;20507;-72
2022/09/04 05:05:21;;;;;;;4.20;2.50;;;15.00;99.90;;;;;;4989884;28;20413;-72
2022/09/04 05:08:05;;;;;;;4.30;2.40;;;15.10;99.90;;;;;;5041941;28;20404;-72
2022/09/04 05:10:42;;;;;;;2.88;2.67;;;15.10;99.90;;;;;;5038303;28;20833;-72
2022/09/04 05:13:23;;;;;;;2.97;2.70;;;15.00;99.90;;;;;;5036236;28;20763;-71
2022/09/04 05:15:54;;;;;;;2.75;2.45;;;15.10;99.90;;;;;;5048723;28;20476;-72
2022/09/04 05:18:47;;;;;;;2.63;2.40;;;15.00;99.90;;;;;;5036472;28;20821;-72
2022/09/04 05:21:29;;;;;;;2.60;2.40;;;14.90;99.90;;;;;;5020675;28;20414;-72
2022/09/04 05:24:09;;;;;;;2.63;2.40;;;15.00;99.90;;;;;;5019644;28;21014;-71
2022/09/04 05:26:34;;;;;;;4.95;2.58;;;14.90;99.90;;;;;;5038191;28;20441;-72
2022/09/04 05:29:24;;;;;;;2.95;2.65;;;14.90;99.90;;;;;;5031835;28;20752;-71
2022/09/04 05:32:27;;;;;;;4.75;2.83;;;14.90;99.90;;;;;;5037315;28;20404;-72
2022/09/04 05:35:01;;;;;;;3.30;2.63;;;14.90;99.90;;;;;;5037238;28;20541;-72
2022/09/04 05:37:41;;;;;;;3.20;2.90;;;14.90;99.90;;;;;;5040160;28;20787;-72
2022/09/04 05:40:31;;;;;;;2.80;2.42;;;14.90;99.90;;;;;;5034464;28;20522;-71
2022/09/04 05:43:27;;;;;;;2.83;2.53;;;14.90;99.90;;;;;;5043834;28;20891;-72
2022/09/04 05:46:26;;;;;;;3.10;2.65;;;15.00;99.90;;;;;;5045257;28;20452;-72
2022/09/04 05:49:19;;;;;;;5.83;2.83;;;15.00;99.90;;;;;;5042842;28;20520;-72
2022/09/04 05:51:50;;;;;;;3.10;2.80;;;15.00;99.90;;;;;;5037900;28;20407;-71
2022/09/04 05:54:54;;;;;;;3.10;2.80;;;14.90;99.90;;;;;;5037111;28;20401;-71
2022/09/04 05:57:43;;;;;;;2.90;2.65;;;15.00;99.90;;;;;;5000253;28;20421;-72
2022/09/04 06:00:13;;;;;;;2.60;2.40;;;14.90;99.90;;;;;;5027335;28;20440;-72
2022/09/04 06:03:04;;;;;;;3.00;2.70;;;15.00;99.90;;;;;;5033946;28;20407;-72
2022/09/04 06:05:48;;;;;;;2.70;2.50;;;15.10;99.90;;;;;;5040332;28;20405;-71
2022/09/04 06:08:35;;;;;;;3.10;2.80;;;15.20;99.90;;;;;;5044742;28;20397;-72
2022/09/04 06:11:22;;;;;;;3.10;2.78;;;15.30;99.90;;;;;;5036618;28;20425;-72
2022/09/04 06:14:00;;;;;;;3.90;3.03;;;15.30;99.90;;;;;;5040738;28;20476;-73
2022/09/04 06:16:44;;;;;;;5.10;2.80;;;15.40;99.90;;;;;;5042771;28;20445;-73
2022/09/04 06:19:37;;;;;;;2.70;2.50;;;15.50;99.90;;;;;;5045060;28;20902;-72
2022/09/04 06:22:24;;;;;;;3.38;3.00;;;15.60;99.90;;;;;;5036311;28;20410;-72
2022/09/04 06:24:52;;;;;;;2.67;2.47;;;15.60;99.90;;;;;;5043478;28;20433;-72
2022/09/04 06:27:41;;;;;;;4.10;2.60;;;15.70;99.90;;;;;;5038079;28;20430;-72
2022/09/04 06:30:12;;;;;;;4.03;2.60;;;15.80;99.90;;;;;;5045756;28;20408;-72
2022/09/04 06:33:11;;;;;;;3.80;2.63;;;15.90;99.90;;;;;;5026495;28;20498;-72
2022/09/04 06:35:41;;;;;;;3.53;2.80;;;16.00;99.90;;;;;;5042555;28;20799;-73
2022/09/04 06:38:13;;;;;;;4.63;3.10;;;16.10;99.90;;;;;;5043023;28;20450;-73
2022/09/04 06:40:42;;;;;;;2.73;2.53;;;16.20;99.90;;;;;;5024172;28;20919;-73
2022/09/04 06:43:31;;;;;;;4.78;2.78;;;16.20;99.90;;;;;;5046296;28;20486;-73
2022/09/04 06:46:20;;;;;;;2.80;2.60;;;16.30;99.90;;;;;;5040769;28;20488;-73
2022/09/04 06:49:08;;;;;;;3.90;3.30;;;16.40;99.90;;;;;;5040858;28;20504;-73
2022/09/04 06:51:52;;;;;;;2.85;2.40;;;16.50;99.90;;;;;;5040217;28;20397;-73
2022/09/04 06:54:54;;;;;;;2.83;2.53;;;16.60;99.90;;;;;;5041024;28;20500;-73
2022/09/04 06:57:40;;;;;;;4.20;2.75;;;16.80;99.90;;;;;;5042204;28;20434;-73
2022/09/04 07:00:08;;;;;;;2.40;2.20;;;16.90;99.90;;;;;;5043730;28;20815;-73
2022/09/04 07:03:10;;;;;;;2.17;2.07;;;17.00;99.90;;;;;;5043416;28;20414;-73
2022/09/04 07:06:03;;;;;;;2.70;2.50;;;17.10;99.90;;;;;;5045809;28;20966;-73
2022/09/04 07:08:46;;;;;;;2.78;2.50;;;17.20;99.90;;;;;;5028397;28;20399;-73
2022/09/04 07:11:43;;;;;;;2.38;2.17;;;17.30;99.90;;;;;;5041439;28;20742;-73
2022/09/04 07:14:28;;;;;;;2.67;2.47;;;17.40;99.90;;;;;;5032024;28;20421;-73
2022/09/04 07:17:06;;;;;;;2.42;2.22;;;17.50;99.90;;;;;;5038546;28;20426;-73
2022/09/04 07:19:55;;;;;;;2.80;2.50;;;17.60;99.90;;;;;;5023712;28;20415;-73
2022/09/04 07:22:26;;;;;;;2.50;2.30;;;17.60;99.90;;;;;;5046720;28;20405;-74
2022/09/04 07:25:19;;;;;;;2.90;2.70;;;17.70;99.90;;;;;;5022077;28;20418;-73
2022/09/04 07:28:10;;;;;;;2.50;2.30;;;17.80;99.90;;;;;;5041464;28;20772;-73
2022/09/04 07:30:43;;;;;;;2.63;2.42;;;17.90;99.90;;;;;;5042095;28;20401;-73
2022/09/04 07:33:32;;;;;;;2.60;2.40;;;18.00;99.90;;;;;;5022950;28;20426;-73
2022/09/04 07:36:12;;;;;;;2.40;2.20;;;18.00;99.90;;;;;;5041890;28;20411;-73
2022/09/04 07:38:50;;;;;;;3.05;2.10;;;18.10;99.90;;;;;;5038945;28;20415;-73
2022/09/04 07:41:52;;;;;;;2.47;2.27;;;18.20;99.90;;;;;;5039566;28;20393;-73
2022/09/04 07:44:33;;;;;;;2.20;2.10;;;18.40;99.90;;;;;;5022684;28;20411;-73
2022/09/04 07:47:44;;;;;;;2.55;2.20;;;18.50;99.90;;;;;;5041516;28;20397;-72
2022/09/04 07:50:18;;;;;;;2.17;2.00;;;18.70;99.90;;;;;;5029730;28;20389;-74
2022/09/04 07:53:18;;;;;;;2.40;2.20;;;18.80;99.90;;;;;;5031122;28;20383;-73
2022/09/04 07:55:51;;;;;;;2.40;2.20;;;18.90;99.90;;;;;;5013568;28;20397;-73
2022/09/04 07:58:45;;;;;;;4.53;2.33;;;19.30;99.90;;;;;;5038199;28;20475;-73
2022/09/04 08:01:37;;;;;;;3.03;2.70;;;19.30;99.90;;;;;;5045293;28;20401;-73
2022/09/04 08:04:08;;;;;;;2.72;2.20;;;19.40;99.90;;;;;;5042015;28;20475;-73
2022/09/04 08:06:52;;;;;;;3.72;2.35;;;19.50;99.90;;;;;;5041843;28;20452;-73
2022/09/04 08:09:20;;;;;;;2.50;2.30;;;19.70;99.90;;;;;;5042246;28;20393;-73
2022/09/04 08:12:38;;;;;;;3.97;2.65;;;19.70;99.90;;;;;;5043031;28;20406;-73
2022/09/04 08:15:30;;;;;;;2.88;2.67;;;19.70;99.90;;;;;;5006560;28;20409;-73
2022/09/04 08:18:20;;;;;;;3.00;2.60;;;19.70;99.90;;;;;;5010216;28;20421;-73
2022/09/04 08:20:57;;;;;;;2.80;2.50;;;19.90;99.90;;;;;;5037802;28;20402;-73
2022/09/04 08:24:00;;;;;;;2.70;2.40;;;20.00;99.90;;;;;;5043506;28;20419;-73
2022/09/04 08:26:43;;;;;;;2.90;2.70;;;20.20;99.90;;;;;;5020990;28;20406;-74
2022/09/04 08:29:27;;;;;;;3.67;2.60;;;20.20;99.90;;;;;;5044429;28;20883;-74
2022/09/04 08:32:47;;;;;;;3.72;2.88;;;20.20;99.90;;;;;;5031855;28;20894;-75
2022/09/04 08:35:44;;;;;;;3.38;2.50;;;20.30;99.90;;;;;;4945177;29;20889;-74
2022/09/04 08:38:25;;;;;;;4.25;2.83;;;20.50;99.90;;;;;;4934050;29;20485;-75
2022/09/04 08:41:12;;;;;;;3.10;2.47;;;20.40;99.90;;;;;;5010882;28;20397;-74
2022/09/04 08:43:52;;;;;;;2.80;2.60;;;20.50;99.90;;;;;;5050037;28;20405;-74
2022/09/04 08:46:18;;;;;;;4.03;2.70;;;20.50;99.90;;;;;;5050268;28;20420;-73
2022/09/04 08:49:22;;;;;;;2.60;2.40;;;20.60;99.90;;;;;;5026729;28;20414;-73
2022/09/04 08:52:00;;;;;;;3.10;2.25;;;20.70;99.90;;;;;;5018865;28;20465;-73
2022/09/04 08:54:37;;;;;;;2.20;2.00;;;20.80;99.90;;;;;;5044330;28;20414;-74
2022/09/04 08:57:41;;;;;;;3.20;2.50;;;20.90;99.90;;;;;;5043238;28;20397;-73
2022/09/04 09:00:16;;;;;;;2.20;2.00;;;20.90;99.90;;;;;;5023486;28;20402;-73
2022/09/04 09:03:15;;;;;;;2.90;2.33;;;20.90;99.90;;;;;;5039336;28;20409;-73
2022/09/04 09:05:55;;;;;;;2.63;2.42;;;20.90;99.90;;;;;;5042317;28;20450;-73
2022/09/04 09:08:53;;;;;;;2.70;2.50;;;21.00;99.90;;;;;;5041459;28;20385;-72
2022/09/04 09:11:48;;;;;;;2.40;2.20;;;21.10;99.90;;;;;;5000630;28;20394;-74
2022/09/04 09:14:55;;;;;;;2.55;2.20;;;21.30;99.90;;;;;;5039222;28;20454;-73
2022/09/04 09:17:52;;;;;;;2.20;2.10;;;21.40;99.90;;;;;;5023321;28;20403;-73
2022/09/04 09:20:35;;;;;;;2.78;2.50;;;21.40;99.90;;;;;;5043482;28;20431;-73
2022/09/04 09:23:45;;;;;;;2.53;2.00;;;21.50;99.90;;;;;;5041693;28;20435;-73
2022/09/04 09:26:29;;;;;;;3.10;2.10;;;21.60;99.90;;;;;;4998623;28;20403;-72
2022/09/04 09:29:15;;;;;;;2.90;2.20;;;21.60;99.90;;;;;;5039493;28;20475;-73
2022/09/04 09:32:05;;;;;;;2.60;2.10;;;21.60;99.90;;;;;;5023561;28;20409;-74
2022/09/04 09:35:07;;;;;;;3.42;2.28;;;21.90;99.90;;;;;;5038819;28;20409;-74
2022/09/04 09:38:05;;;;;;;2.80;2.20;;;21.90;99.90;;;;;;5037447;28;20448;-75
2022/09/04 09:40:37;;;;;;;2.90;2.00;;;21.80;99.90;;;;;;5044571;28;20411;-75
2022/09/04 09:43:45;;;;;;;2.83;1.70;;;22.10;99.90;;;;;;5027715;28;20781;-75
2022/09/04 09:46:29;;;;;;;2.20;2.00;;;22.20;99.90;;;;;;5034601;28;20405;-74
2022/09/04 09:49:21;;;;;;;2.67;2.25;;;22.20;99.90;;;;;;5045196;28;20419;-75
2022/09/04 09:52:29;;;;;;;2.75;2.10;;;22.20;99.90;;;;;;5045314;28;20891;-74
2022/09/04 09:55:32;;;;;;;3.22;1.80;;;22.40;99.90;;;;;;5040356;28;20429;-74
2022/09/04 09:58:24;;;;;;;1.75;1.60;;;22.50;99.90;;;;;;5043978;28;20440;-75
2022/09/04 10:01:03;;;;;;;1.98;1.80;;;22.60;99.90;;;;;;5048783;28;20389;-75
2022/09/04 10:03:38;;;;;;;2.35;1.95;;;22.70;99.90;;;;;;5045851;28;20410;-73
2022/09/04 10:06:52;;;;;;;1.98;1.77;;;22.70;99.90;;;;;;5045387;28;20406;-74
2022/09/04 10:09:37;;;;;;;2.80;2.00;;;22.70;99.90;;;;;;5028937;28;20406;-73
2022/09/04 10:12:29;;;;;;;2.58;1.80;;;22.80;99.90;;;;;;5047432;28;20476;-73
2022/09/04 10:15:15;;;;;;;2.20;1.80;;;22.90;99.90;;;;;;5031128;28;20441;-73
2022/09/04 10:18:19;;;;;;;1.60;1.50;;;23.00;99.90;;;;;;5015359;28;20394;-73
2022/09/04 10:21:11;;;;;;;5.30;1.77;;;23.00;99.90;;;;;;5032270;28;20470;-73
2022/09/04 10:23:39;;;;;;;1.50;1.40;;;23.20;99.90;;;;;;5032551;28;20419;-74
2022/09/04 10:26:24;;;;;;;1.60;1.50;;;23.30;99.90;;;;;;5033319;28;20752;-74
2022/09/04 10:29:32;;;;;;;2.47;1.80;;;23.30;99.90;;;;;;5033183;28;20407;-73
2022/09/04 10:32:15;;;;;;;2.70;1.77;;;23.30;99.90;;;;;;5033210;28;20386;-74
2022/09/04 10:34:54;;;;;;;1.70;1.60;;;23.50;99.90;;;;;;5032885;28;20892;-73
2022/09/04 10:37:44;;;;;;;1.88;1.67;;;23.50;99.90;;;;;;5015448;28;20395;-74
2022/09/04 10:40:47;;;;;;;1.80;1.70;;;23.50;99.90;;;;;;5033050;28;20386;-74
2022/09/04 10:43:47;;;;;;;2.00;1.80;;;23.70;98.10;;;;;;5032643;28;20407;-74
2022/09/04 10:46:23;;;;;;;1.67;1.57;;;23.80;99.10;;;;;;5033150;28;20383;-73
2022/09/04 10:49:16;;;;;;;1.80;1.60;;;23.90;99.90;;;;;;5032869;28;20454;-74
2022/09/04 10:52:20;;;;;;;2.20;1.60;;;23.90;98.40;;;;;;5032937;28;20508;-73
2022/09/04 10:55:07;;;;;;;1.70;1.60;;;24.00;98.30;;;;;;4952022;29;20757;-74
2022/09/04 10:57:53;;;;;;;1.60;1.50;;;24.00;94.10;;;;;;5029125;28;20478;-74
2022/09/04 11:00:21;;;;;;;1.50;1.40;;;24.10;96.90;;;;;;5032669;28;20386;-74
2022/09/04 11:03:15;;;;;;;2.30;1.50;;;24.10;96.30;;;;;;5032273;28;20887;-73
2022/09/04 11:06:01;;;;;;;1.73;1.30;;;24.20;95.10;;;;;;5032701;28;20433;-74
2022/09/04 11:08:53;;;;;;;1.50;1.30;;;24.50;92.90;;;;;;5033652;28;20387;-73
2022/09/04 11:11:39;;;;;;;1.88;1.23;;;24.50;85.10;;;;;;5015462;28;20454;-74
2022/09/04 11:14:27;;;;;;;1.80;1.38;;;24.70;90.50;;;;;;5015654;28;20466;-74
2022/09/04 11:17:11;;;;;;;1.10;1.00;;;24.80;85.70;;;;;;5015343;28;20889;-73
2022/09/04 11:19:55;;;;;;;1.33;1.23;;;25.00;78.80;;;;;;5032723;28;20469;-74
2022/09/04 11:22:39;;;;;;;2.50;1.40;;;25.20;82.90;;;;;;5032444;28;20391;-74
2022/09/04 11:25:37;;;;;;;2.83;1.38;;;25.30;81.10;;;;;;5031863;28;20496;-74
2022/09/04 11:28:15;;;;;;;1.20;1.10;;;25.40;80.80;;;;;;5032871;28;20412;-73
2022/09/04 11:31:02;;;;;;;1.50;1.30;;;25.60;77.60;;;;;;5033006;28;20428;-74
2022/09/04 11:33:36;;;;;;;1.40;1.30;;;26.20;72.10;;;;;;5032177;28;20486;-74
2022/09/04 11:36:14;;;;;;;1.50;1.33;;;27.00;67.90;;;;;;5031888;28;20399;-73
2022/09/04 11:39:24;;;;;;;1.38;1.10;;;27.80;62.50;;;;;;5031832;28;20947;-74
2022/09/04 11:42:29;;;;;;;2.00;1.40;;;28.20;63.90;;;;;;5031954;28;20441;-74
2022/09/04 11:45:25;;;;;;;2.03;1.10;;;28.30;61.40;;;;;;5031620;28;20419;-74
2022/09/04 11:48:00;;;;;;;1.10;1.00;;;28.40;61.80;;;;;;5031683;28;20383;-74
2022/09/04 11:51:00;;;;;;;1.00;1.00;;;29.00;61.30;;;;;;5031697;28;20383;-74
2022/09/04 11:53:40;;;;;;;2.53;1.30;;;29.40;60.60;;;;;;5000637;28;20391;-72
2022/09/04 11:56:33;;;;;;;1.30;0.90;;;29.50;63.80;;;;;;5031764;28;20379;-72
2022/09/04 11:59:17;;;;;;;2.50;1.10;;;29.10;56.40;;;;;;5031400;28;20401;-72
2022/09/04 12:02:08;;;;;;;1.70;1.17;;;28.90;59.70;;;;;;5031443;28;20390;-73
2022/09/04 12:04:41;;;;;;;2.50;1.20;;;28.70;58.80;;;;;;5031020;28;20407;-73
2022/09/04 12:07:38;;;;;;;1.33;1.00;;;29.30;55.60;;;;;;5031371;28;20386;-73
2022/09/04 12:10:19;;;;;;;1.23;1.00;;;29.50;55.10;;;;;;5024102;28;20414;-72
2022/09/04 12:13:22;;;;;;;1.90;1.10;;;29.10;56.40;;;;;;5030493;28;20422;-73
2022/09/04 12:15:54;;;;;;;1.30;1.20;;;28.90;54.50;;;;;;5031104;28;20383;-73
2022/09/04 12:18:37;;;;;;;5.10;1.80;;;29.20;57.50;;;;;;5030893;28;20448;-72
2022/09/04 12:21:15;;;;;;;1.30;1.02;;;28.60;55.60;;;;;;5013335;28;20390;-72
2022/09/04 12:24:22;;;;;;;2.00;1.20;;;28.20;56.70;;;;;;5030463;28;20445;-72
2022/09/04 12:26:50;;;;;;;1.27;1.15;;;28.60;57.50;;;;;;5031101;28;20386;-73
2022/09/04 12:29:49;;;;;;;2.10;1.30;;;28.70;57.40;;;;;;5030954;28;20754;-72
2022/09/04 12:32:29;;;;;;;1.77;1.00;;;28.40;58.30;;;;;;5020872;28;20441;-73
2022/09/04 12:35:30;;;;;;;1.15;1.05;;;28.00;61.80;;;;;;5030685;28;20394;-73
2022/09/04 12:38:07;;;;;;;1.20;1.10;;;28.10;57.10;;;;;;5012975;28;20403;-73
2022/09/04 12:41:00;;;;;;;1.10;1.00;;;28.00;57.30;;;;;;5030774;28;20391;-72
2022/09/04 12:43:55;;;;;;;1.30;1.20;;;28.40;56.90;;;;;;5030380;28;20429;-73
2022/09/04 12:46:51;;;;;;;2.10;1.10;;;28.40;57.30;;;;;;5030697;28;20383;-72
2022/09/04 12:49:37;;;;;;;1.40;1.30;;;28.00;56.60;;;;;;5030653;28;20467;-72
2022/09/04 12:52:43;;;;;;;1.50;1.40;;;27.60;57.90;;;;;;5030637;28;20383;-73
2022/09/04 12:55:33;;;;;;;2.90;1.30;;;27.40;60.80;;;;;;4950189;28;20494;-72
2022/09/04 12:58:20;;;;;;;0.90;0.90;;;27.90;57.60;;;;;;5030665;28;20787;-73
2022/09/04 13:01:07;;;;;;;1.35;1.25;;;28.10;57.20;;;;;;5012681;28;20375;-72
2022/09/04 13:03:54;;;;;;;2.08;1.25;;;28.00;56.80;;;;;;5030118;28;20877;-73
2022/09/04 13:06:22;;;;;;;1.47;1.37;;;28.30;57.60;;;;;;5012742;28;20397;-72
2022/09/04 13:09:11;;;;;;;1.42;0.90;;;28.10;58.20;;;;;;5030308;28;20798;-72
2022/09/04 13:11:43;;;;;;;1.30;1.20;;;28.40;57.70;;;;;;5030166;28;20386;-72
2022/09/04 13:14:50;;;;;;;1.70;1.10;;;28.40;57.40;;;;;;5030057;28;20407;-73
2022/09/04 13:17:42;;;;;;;1.40;1.20;;;28.30;59.70;;;;;;5030172;28;20482;-74
2022/09/04 13:20:34;;;;;;;1.90;1.10;;;28.10;59.30;;;;;;5030219;28;20861;-73
2022/09/04 13:23:16;;;;;;;1.70;1.20;;;28.20;56.20;;;;;;5011292;28;20528;-72
2022/09/04 13:25:56;;;;;;;1.35;1.25;;;28.20;56.70;;;;;;5029941;28;20379;-72
2022/09/04 13:28:49;;;;;;;1.80;1.40;;;28.50;60.80;;;;;;5030013;28;20387;-72
2022/09/04 13:31:17;;;;;;;1.83;1.30;;;28.10;58.30;;;;;;5030138;28;20402;-72
2022/09/04 13:34:06;;;;;;;1.30;1.20;;;28.10;58.10;;;;;;5029771;28;20441;-72
2022/09/04 13:37:06;;;;;;;1.50;1.23;;;28.50;58.50;;;;;;5030136;28;20387;-73
2022/09/04 13:39:59;;;;;;;1.20;1.10;;;28.40;57.50;;;;;;5030027;28;20730;-72
2022/09/04 13:42:34;;;;;;;1.40;1.30;;;28.30;55.50;;;;;;5029834;28;20402;-72
2022/09/04 13:45:05;;;;;;;1.30;1.20;;;28.20;57.70;;;;;;5029955;28;20494;-73
2022/09/04 13:47:55;;;;;;;1.80;1.20;;;28.50;55.60;;;;;;5029942;28;20382;-73
2022/09/04 13:50:35;;;;;;;1.67;1.23;;;28.40;57.20;;;;;;5029961;28;20382;-72
2022/09/04 13:53:14;;;;;;;1.90;1.30;;;28.30;56.80;;;;;;5029633;28;20393;-71
2022/09/04 13:55:49;;;;;;;1.73;1.10;;;28.50;55.30;;;;;;5029983;28;20867;-71
2022/09/04 13:58:22;;;;;;;1.30;1.20;;;28.20;54.70;;;;;;5029818;28;20454;-72
2022/09/04 14:00:55;;;;;;;1.50;1.33;;;28.20;56.30;;;;;;5029798;28;20376;-73
2022/09/04 14:03:43;;;;;;;1.45;1.35;;;28.30;57.30;;;;;;5011624;28;20422;-73
2022/09/04 14:06:13;;;;;;;1.13;1.02;;;28.30;55.10;;;;;;5029865;28;20390;-72
2022/09/04 14:08:42;;;;;;;1.57;1.30;;;28.60;54.40;;;;;;5029780;28;20417;-72
2022/09/04 14:11:45;;;;;;;1.90;1.33;;;28.20;54.50;;;;;;5029667;28;20386;-73
2022/09/04 14:14:32;;;;;;;1.10;1.00;;;28.60;56.60;;;;;;5029420;28;20391;-73
2022/09/04 14:16:58;;;;;;;2.00;1.00;;;28.80;56.80;;;;;;5029608;28;20386;-73
2022/09/04 14:19:54;;;;;;;0.90;0.90;;;28.60;55.50;;;;;;5029601;28;20395;-74
2022/09/04 14:22:25;;;;;;;1.58;1.48;;;28.50;54.90;;;;;;5012072;28;20489;-73
2022/09/04 14:25:08;;;;;;;1.40;1.30;;;28.60;54.80;;;;;;5029172;28;20441;-72
2022/09/04 14:27:52;;;;;;;1.70;1.20;;;28.40;57.60;;;;;;5011872;28;20437;-73